createdAt,value
2023-04-27T00:00:11.150Z,70.48
2023-04-27T00:02:20.503Z,70.49
2023-04-27T00:04:14.630Z,70.63
2023-04-27T00:06:06.405Z,70.71
2023-04-27T00:07:58.035Z,70.94
2023-04-27T00:09:49.671Z,71.04
2023-04-27T00:11:41.443Z,71.16
2023-04-27T00:13:33.293Z,71.23
2023-04-27T00:15:25.250Z,71.31
2023-04-27T00:17:16.867Z,71.43
2023-04-27T00:19:09.159Z,71.42
2023-04-27T00:21:01.248Z,71.45
2023-04-27T00:22:52.917Z,71.36
2023-04-27T00:24:44.672Z,71.52
2023-04-27T00:26:36.735Z,71.75
2023-04-27T00:28:28.735Z,71.75
2023-04-27T00:30:20.896Z,71.85
2023-04-27T00:32:12.801Z,71.76
2023-04-27T00:34:04.252Z,71.92
2023-04-27T00:36:00.863Z,72.06
2023-04-27T00:37:54.624Z,72.19
2023-04-27T00:39:46.726Z,72.35
2023-04-27T00:41:39.885Z,72.52
2023-04-27T00:43:52.119Z,72.52
2023-04-27T00:45:44.046Z,72.62
2023-04-27T00:47:36.234Z,72.67
2023-04-27T00:49:27.984Z,72.74
2023-04-27T00:51:19.583Z,72.93
2023-04-27T00:53:11.448Z,72.86
2023-04-27T00:55:05.025Z,73.03
2023-04-27T00:56:57.015Z,73.12
2023-04-27T00:58:48.575Z,73.24
2023-04-27T01:00:41.044Z,73.19
2023-04-27T01:02:33.032Z,73.36
2023-04-27T01:04:24.896Z,73.23
2023-04-27T01:06:16.990Z,73.22
2023-04-27T01:08:08.415Z,73.21
2023-04-27T01:10:00.221Z,73.33
2023-04-27T01:11:51.837Z,73.33
2023-04-27T01:13:43.517Z,73.29
2023-04-27T01:15:35.749Z,73.17
2023-04-27T01:17:27.337Z,73.17
2023-04-27T01:19:18.831Z,73.13
2023-04-27T01:21:10.673Z,73.06
2023-04-27T01:23:02.208Z,73.05
2023-04-27T01:24:54.113Z,72.99
2023-04-27T01:26:46.236Z,72.91
2023-04-27T01:28:37.549Z,72.97
2023-04-27T01:30:30.124Z,73.08
2023-04-27T01:32:21.823Z,72.99
2023-04-27T01:34:13.780Z,72.99
2023-04-27T01:36:06.411Z,72.87
2023-04-27T01:37:57.872Z,73.01
2023-04-27T01:39:49.412Z,72.92
2023-04-27T01:41:41.800Z,72.69
2023-04-27T01:43:33.666Z,72.57
2023-04-27T01:45:25.377Z,72.68
2023-04-27T01:47:17.431Z,72.43
2023-04-27T01:49:09.183Z,72.32
2023-04-27T01:51:02.393Z,72.42
2023-04-27T01:52:54.136Z,72.27
2023-04-27T01:54:45.565Z,72.26
2023-04-27T01:56:36.853Z,72.52
2023-04-27T01:58:28.645Z,72.74
2023-04-27T02:00:20.417Z,72.95
2023-04-27T02:02:12.347Z,72.84
2023-04-27T02:04:04.427Z,72.98
2023-04-27T02:05:56.171Z,73.10
2023-04-27T02:07:48.913Z,73.28
2023-04-27T02:09:40.416Z,73.17
2023-04-27T02:11:32.298Z,73.09
2023-04-27T02:13:24.277Z,72.77
2023-04-27T02:15:16.736Z,72.80
2023-04-27T02:17:08.554Z,72.58
2023-04-27T02:19:00.519Z,72.61
2023-04-27T02:20:52.181Z,72.77
2023-04-27T02:22:44.474Z,72.70
2023-04-27T02:24:36.686Z,72.32
2023-04-27T02:26:30.852Z,72.24
2023-04-27T02:28:22.360Z,72.22
2023-04-27T02:30:14.896Z,72.36
2023-04-27T02:32:07.135Z,72.47
2023-04-27T02:33:58.666Z,72.56
2023-04-27T02:35:50.525Z,72.61
2023-04-27T02:37:42.156Z,72.62
2023-04-27T02:39:34.060Z,72.52
2023-04-27T02:41:28.211Z,72.39
2023-04-27T02:43:19.809Z,72.56
2023-04-27T02:45:11.645Z,72.57
2023-04-27T02:47:03.357Z,72.65
2023-04-27T02:48:58.005Z,72.76
2023-04-27T02:50:49.685Z,73.05
2023-04-27T02:52:41.342Z,72.94
2023-04-27T02:54:33.332Z,73.11
2023-04-27T02:56:25.108Z,73.12
2023-04-27T02:58:17.264Z,73.15
2023-04-27T03:00:10.597Z,73.19
2023-04-27T03:02:02.467Z,73.31
2023-04-27T03:03:54.305Z,73.08
2023-04-27T03:05:46.612Z,73.02
2023-04-27T03:07:38.047Z,72.86
2023-04-27T03:09:29.564Z,72.98
2023-04-27T03:11:21.254Z,72.89
2023-04-27T03:13:15.194Z,73.01
2023-04-27T03:15:07.933Z,72.96
2023-04-27T03:17:00.363Z,73.17
2023-04-27T03:18:51.882Z,73.25
2023-04-27T03:20:43.365Z,73.52
2023-04-27T03:22:36.131Z,73.55
2023-04-27T03:24:28.009Z,73.73
2023-04-27T03:26:20.569Z,73.60
2023-04-27T03:28:12.360Z,73.79
2023-04-27T03:30:04.567Z,73.92
2023-04-27T03:31:56.100Z,73.98
2023-04-27T03:33:47.512Z,74.20
2023-04-27T03:35:39.265Z,74.17
2023-04-27T03:37:30.628Z,74.15
2023-04-27T03:39:21.945Z,74.32
2023-04-27T03:41:14.001Z,74.11
2023-04-27T03:43:06.404Z,74.14
2023-04-27T03:44:58.080Z,74.01
2023-04-27T03:46:50.321Z,74.08
2023-04-27T03:48:44.017Z,74.35
2023-04-27T03:50:35.362Z,74.52
2023-04-27T03:52:27.416Z,74.81
2023-04-27T03:54:18.922Z,74.89
2023-04-27T03:56:10.643Z,74.72
2023-04-27T03:58:02.454Z,74.81
2023-04-27T03:59:54.038Z,75.07
2023-04-27T04:01:45.481Z,75.27
2023-04-27T04:03:37.724Z,75.06
2023-04-27T04:05:30.721Z,75.06
2023-04-27T04:07:22.100Z,75.14
2023-04-27T04:09:13.770Z,75.10
2023-04-27T04:11:05.803Z,75.18
2023-04-27T04:12:57.621Z,75.60
2023-04-27T04:14:50.272Z,75.52
2023-04-27T04:16:41.826Z,75.21
2023-04-27T04:18:34.135Z,75.22
2023-04-27T04:20:25.838Z,75.06
2023-04-27T04:22:17.767Z,74.68
2023-04-27T04:24:29.808Z,74.92
2023-04-27T04:26:23.628Z,75.17
2023-04-27T04:28:15.538Z,75.12
2023-04-27T04:30:07.593Z,75.21
2023-04-27T04:31:59.311Z,75.25
2023-04-27T04:33:51.884Z,75.42
2023-04-27T04:35:43.767Z,75.47
2023-04-27T04:37:38.132Z,75.45
2023-04-27T04:39:32.286Z,75.62
2023-04-27T04:41:23.894Z,75.49
2023-04-27T04:43:15.543Z,75.46
2023-04-27T04:45:07.873Z,75.33
2023-04-27T04:46:59.707Z,75.46
2023-04-27T04:48:54.488Z,75.29
2023-04-27T04:50:46.382Z,75.10
2023-04-27T04:52:37.647Z,75.02
2023-04-27T04:54:29.003Z,74.99
2023-04-27T04:56:20.233Z,74.69
2023-04-27T04:58:11.928Z,74.24
2023-04-27T05:00:12.020Z,73.72
2023-04-27T05:02:03.719Z,73.95
2023-04-27T05:03:55.273Z,73.75
2023-04-27T05:05:48.215Z,73.64
2023-04-27T05:07:39.550Z,73.66
2023-04-27T05:09:30.958Z,73.34
2023-04-27T05:11:22.445Z,73.21
2023-04-27T05:13:14.140Z,72.93
2023-04-27T05:15:06.157Z,72.59
2023-04-27T05:16:57.787Z,72.29
2023-04-27T05:18:49.169Z,72.49
2023-04-27T05:20:40.697Z,72.35
2023-04-27T05:22:32.188Z,72.19
2023-04-27T05:24:23.515Z,72.12
2023-04-27T05:26:16.804Z,72.02
2023-04-27T05:28:09.502Z,72.18
2023-04-27T05:30:01.754Z,71.69
2023-04-27T05:31:53.725Z,71.30
2023-04-27T05:33:45.093Z,71.09
2023-04-27T05:35:36.706Z,70.23
2023-04-27T05:37:28.369Z,70.27
2023-04-27T05:39:19.931Z,70.29
2023-04-27T05:41:11.658Z,69.94
2023-04-27T05:43:05.388Z,69.62
2023-04-27T05:44:56.986Z,69.13
2023-04-27T05:46:48.478Z,69.28
2023-04-27T05:48:39.446Z,68.86
2023-04-27T05:53:20.540Z,67.51
2023-04-27T05:55:10.529Z,67.52
2023-04-27T05:57:00.397Z,66.53
2023-04-27T05:58:51.273Z,66.03
2023-04-27T06:00:41.624Z,64.10
2023-04-27T06:02:31.890Z,64.82
2023-04-27T06:04:22.397Z,62.77
2023-04-27T06:06:12.546Z,60.91
2023-04-27T06:08:02.557Z,62.30
2023-04-27T06:09:53.056Z,61.18
2023-04-27T06:11:44.122Z,60.20
2023-04-27T06:13:34.413Z,60.15
2023-04-27T06:15:24.373Z,57.96
2023-04-27T06:17:14.351Z,57.32
2023-04-27T06:19:04.606Z,55.84
2023-04-27T06:21:02.794Z,55.27
2023-04-27T06:22:52.890Z,55.76
2023-04-27T06:24:43.299Z,52.32
2023-04-27T06:26:33.350Z,54.10
2023-04-27T06:28:23.243Z,54.41
2023-04-27T06:30:13.399Z,53.12
2023-04-27T06:32:06.237Z,52.90
2023-04-27T06:33:56.087Z,52.23
2023-04-27T06:35:47.425Z,50.82
2023-04-27T06:37:37.535Z,52.51
2023-04-27T06:39:27.837Z,51.96
2023-04-27T06:41:17.912Z,50.74
2023-04-27T06:43:08.056Z,51.57
2023-04-27T06:44:58.275Z,51.09
2023-04-27T06:46:48.197Z,51.77
2023-04-27T06:48:38.402Z,50.33
2023-04-27T06:50:28.829Z,50.43
2023-04-27T06:52:18.957Z,51.41
2023-04-27T06:54:08.765Z,51.62
2023-04-27T06:55:59.502Z,51.48
2023-04-27T06:57:49.862Z,52.22
2023-04-27T06:59:40.269Z,52.89
2023-04-27T07:01:30.188Z,52.74
2023-04-27T07:03:21.629Z,53.14
2023-04-27T07:05:11.926Z,52.81
2023-04-27T07:07:01.680Z,52.82
2023-04-27T07:08:51.396Z,52.26
2023-04-27T07:10:41.327Z,53.39
2023-04-27T07:12:31.346Z,53.41
2023-04-27T07:14:21.630Z,52.92
2023-04-27T07:16:11.550Z,52.98
2023-04-27T07:18:01.518Z,53.07
2023-04-27T07:19:51.476Z,51.44
2023-04-27T07:21:41.958Z,49.93
2023-04-27T07:23:32.114Z,51.17
2023-04-27T07:25:22.067Z,51.11
2023-04-27T07:27:12.877Z,49.17
2023-04-27T07:29:11.088Z,49.75
2023-04-27T07:31:05.540Z,49.96
2023-04-27T07:32:56.056Z,50.55
2023-04-27T07:34:53.262Z,49.49
2023-04-27T07:36:44.642Z,49.63
2023-04-27T07:38:34.937Z,49.15
2023-04-27T07:40:25.929Z,46.79
2023-04-27T07:42:16.157Z,47.05
2023-04-27T07:44:06.240Z,47.51
2023-04-27T07:45:57.652Z,47.38
2023-04-27T07:47:47.617Z,46.90
2023-04-27T07:49:37.749Z,45.37
2023-04-27T07:51:27.950Z,45.78
2023-04-27T07:53:18.336Z,46.75
2023-04-27T07:55:09.297Z,46.41
2023-04-27T07:56:59.475Z,45.22
2023-04-27T07:58:49.336Z,43.08
2023-04-27T08:00:39.286Z,41.50
2023-04-27T08:02:31.028Z,40.98
2023-04-27T08:04:21.141Z,44.05
2023-04-27T08:06:11.596Z,44.86
2023-04-27T08:08:02.662Z,43.66
2023-04-27T08:09:52.887Z,44.41
2023-04-27T08:11:42.942Z,43.18
2023-04-27T08:13:34.185Z,43.37
2023-04-27T08:15:24.165Z,41.36
2023-04-27T08:17:14.234Z,42.25
2023-04-27T08:19:04.155Z,42.61
2023-04-27T08:20:54.320Z,41.02
2023-04-27T08:22:44.452Z,41.81
2023-04-27T08:24:34.614Z,41.79
2023-04-27T08:26:26.280Z,40.85
2023-04-27T08:28:16.934Z,40.15
2023-04-27T08:30:07.890Z,40.86
2023-04-27T08:32:00.572Z,40.62
2023-04-27T08:33:51.677Z,38.66
2023-04-27T08:35:41.735Z,38.07
2023-04-27T08:37:31.784Z,38.99
2023-04-27T08:39:21.992Z,39.11
2023-04-27T08:41:21.819Z,39.59
2023-04-27T08:43:12.584Z,38.92
2023-04-27T08:45:04.221Z,39.07
2023-04-27T08:46:54.110Z,37.86
2023-04-27T08:48:44.176Z,38.30
2023-04-27T08:50:35.667Z,38.40
2023-04-27T08:52:25.972Z,37.95
2023-04-27T08:54:16.147Z,37.87
2023-04-27T08:56:06.472Z,33.62
2023-04-27T08:57:57.596Z,35.84
2023-04-27T08:59:59.166Z,35.55
2023-04-27T09:01:49.586Z,37.14
2023-04-27T09:03:39.478Z,36.41
2023-04-27T09:05:29.925Z,36.20
2023-04-27T09:07:20.137Z,35.30
2023-04-27T09:09:10.572Z,36.84
2023-04-27T09:11:00.943Z,37.02
2023-04-27T09:12:56.283Z,36.16
2023-04-27T09:14:56.968Z,34.31
2023-04-27T09:16:58.781Z,36.09
2023-04-27T09:18:58.598Z,35.15
2023-04-27T09:20:51.328Z,36.91
2023-04-27T09:22:51.412Z,36.35
2023-04-27T09:24:51.896Z,36.21
2023-04-27T09:26:49.073Z,37.31
2023-04-27T09:29:01.446Z,38.33
2023-04-27T09:30:54.118Z,37.59
2023-04-27T09:33:01.588Z,37.89
2023-04-27T09:35:12.286Z,37.36
2023-04-27T09:37:02.936Z,35.63
2023-04-27T09:38:53.435Z,35.15
2023-04-27T09:40:46.352Z,34.00
2023-04-27T09:42:36.367Z,32.73
2023-04-27T09:44:27.315Z,31.63
2023-04-27T09:46:17.934Z,33.21
2023-04-27T09:48:09.205Z,33.42
2023-04-27T09:50:01.055Z,34.50
2023-04-27T09:51:53.698Z,36.22
2023-04-27T09:53:51.858Z,35.65
2023-04-27T09:55:54.958Z,35.39
2023-04-27T09:57:51.557Z,33.01
2023-04-27T10:00:07.349Z,33.65
2023-04-27T10:02:00.116Z,34.05
2023-04-27T10:04:14.386Z,32.92
2023-04-27T10:06:45.585Z,31.95
2023-04-27T10:08:35.592Z,31.10
2023-04-27T10:10:25.813Z,30.87
2023-04-27T10:12:17.327Z,31.62
2023-04-27T10:14:10.232Z,28.57
2023-04-27T10:16:15.907Z,28.38
2023-04-27T10:18:06.694Z,30.32
2023-04-27T10:19:58.873Z,29.72
2023-04-27T10:22:07.392Z,29.81
2023-04-27T10:24:06.892Z,29.67
2023-04-27T10:27:28.205Z,30.04
2023-04-27T10:29:20.581Z,28.50
2023-04-27T10:31:12.223Z,30.17
2023-04-27T10:33:07.551Z,29.73
2023-04-27T10:35:10.547Z,30.57
2023-04-27T10:37:10.022Z,29.44
2023-04-27T10:39:01.965Z,30.09
2023-04-27T10:40:58.564Z,31.52
2023-04-27T10:42:50.035Z,33.75
2023-04-27T10:44:41.705Z,34.70
2023-04-27T10:46:36.193Z,34.83
2023-04-27T10:48:30.417Z,35.43
2023-04-27T10:50:22.748Z,34.39
2023-04-27T10:52:14.612Z,35.52
2023-04-27T10:54:06.160Z,35.71
2023-04-27T10:55:57.960Z,37.27
2023-04-27T10:57:53.979Z,36.97
2023-04-27T10:59:50.980Z,37.24
2023-04-27T11:01:42.422Z,37.89
2023-04-27T11:03:34.262Z,37.78
2023-04-27T11:05:30.552Z,37.43
2023-04-27T11:07:26.592Z,38.66
2023-04-27T11:09:28.047Z,38.91
2023-04-27T11:11:20.678Z,38.70
2023-04-27T11:13:13.225Z,39.46
2023-04-27T11:15:05.420Z,39.48
2023-04-27T11:16:57.105Z,39.76
2023-04-27T11:18:48.408Z,38.77
2023-04-27T11:20:40.151Z,38.02
2023-04-27T11:22:32.354Z,37.88
2023-04-27T11:24:24.109Z,36.15
2023-04-27T11:26:19.076Z,37.03
2023-04-27T11:28:20.526Z,36.81
2023-04-27T11:30:22.609Z,37.63
2023-04-27T11:32:21.619Z,37.21
2023-04-27T11:34:16.540Z,37.58
2023-04-27T11:36:22.236Z,37.99
2023-04-27T11:38:18.715Z,37.72
2023-04-27T11:40:11.305Z,35.23
2023-04-27T11:42:24.933Z,34.57
2023-04-27T11:44:16.354Z,34.60
2023-04-27T11:46:10.636Z,35.96
2023-04-27T11:48:03.846Z,35.86
2023-04-27T11:49:57.351Z,34.89
2023-04-27T11:51:49.103Z,35.95
2023-04-27T11:53:42.596Z,36.84
2023-04-27T11:55:41.486Z,36.69
2023-04-27T11:57:35.631Z,38.25
2023-04-27T11:59:27.964Z,36.44
2023-04-27T12:01:27.811Z,36.74
2023-04-27T12:03:28.449Z,36.33
2023-04-27T12:05:20.623Z,37.40
2023-04-27T12:07:12.691Z,37.97
2023-04-27T12:09:05.309Z,36.85
2023-04-27T12:12:57.633Z,36.07
2023-04-27T12:14:49.710Z,36.95
2023-04-27T12:16:41.101Z,33.98
2023-04-27T12:18:32.315Z,34.77
2023-04-27T12:20:23.311Z,33.51
2023-04-27T12:22:14.524Z,33.60
2023-04-27T12:24:06.727Z,35.43
2023-04-27T12:25:58.365Z,34.35
2023-04-27T12:27:50.177Z,34.91
2023-04-27T12:29:41.742Z,34.60
2023-04-27T12:31:33.757Z,34.81
2023-04-27T12:33:26.531Z,33.15
2023-04-27T12:35:18.365Z,33.94
2023-04-27T12:37:10.281Z,30.83
2023-04-27T12:39:14.729Z,29.35
2023-04-27T12:41:06.557Z,29.69
2023-04-27T12:43:00.944Z,27.91
2023-04-27T12:44:53.310Z,30.70
2023-04-27T12:46:46.449Z,31.98
2023-04-27T12:48:38.371Z,31.58
2023-04-27T12:50:31.063Z,31.15
2023-04-27T12:52:23.043Z,30.96
2023-04-27T12:54:14.825Z,30.90
2023-04-27T12:56:06.485Z,29.65
2023-04-27T12:57:58.453Z,29.29
2023-04-27T12:59:49.854Z,30.85
2023-04-27T13:01:41.571Z,29.12
2023-04-27T13:03:33.079Z,29.08
2023-04-27T13:05:24.519Z,30.49
2023-04-27T13:07:16.929Z,29.52
2023-04-27T13:09:08.473Z,31.50
2023-04-27T13:10:59.853Z,31.06
2023-04-27T13:12:51.317Z,30.99
2023-04-27T13:14:43.324Z,31.65
2023-04-27T13:16:34.714Z,32.12
2023-04-27T13:18:26.458Z,32.07
2023-04-27T13:20:17.675Z,33.71
2023-04-27T13:22:09.939Z,34.06
2023-04-27T13:24:01.478Z,33.84
2023-04-27T13:25:53.241Z,35.65
2023-04-27T13:27:44.532Z,36.08
2023-04-27T13:29:35.686Z,36.92
2023-04-27T13:31:27.471Z,37.54
2023-04-27T13:33:23.026Z,37.36
2023-04-27T13:35:14.687Z,36.48
2023-04-27T13:37:07.353Z,36.79
2023-04-27T13:38:59.072Z,37.11
2023-04-27T13:40:50.667Z,36.46
2023-04-27T13:42:42.332Z,37.04
2023-04-27T13:44:33.819Z,37.60
2023-04-27T13:46:25.572Z,36.39
2023-04-27T13:48:17.115Z,36.33
2023-04-27T13:50:10.573Z,36.19
2023-04-27T13:52:01.980Z,36.64
2023-04-27T13:53:53.180Z,35.34
2023-04-27T13:55:44.779Z,33.95
2023-04-27T13:57:36.092Z,32.10
2023-04-27T13:59:27.688Z,32.07
2023-04-27T14:01:18.909Z,32.14
2023-04-27T14:03:10.752Z,32.15
2023-04-27T14:05:02.169Z,31.58
2023-04-27T14:06:53.194Z,31.24
2023-04-27T14:08:44.661Z,29.97
2023-04-27T14:10:37.632Z,31.56
2023-04-27T14:12:31.474Z,31.58
2023-04-27T14:14:22.918Z,31.93
2023-04-27T14:16:14.473Z,31.59
2023-04-27T14:18:07.020Z,31.02
2023-04-27T14:19:58.471Z,30.72
2023-04-27T14:21:50.307Z,31.52
2023-04-27T14:23:41.966Z,31.37
2023-04-27T14:25:34.700Z,30.73
2023-04-27T14:27:27.361Z,31.15
2023-04-27T14:29:18.904Z,32.45
2023-04-27T14:31:10.608Z,32.44
2023-04-27T14:33:02.880Z,31.69
2023-04-27T14:34:54.534Z,33.10
2023-04-27T14:36:46.044Z,34.28
2023-04-27T14:38:37.327Z,34.24
2023-04-27T14:40:30.132Z,33.38
2023-04-27T14:42:21.816Z,34.17
2023-04-27T14:44:13.254Z,34.47
2023-04-27T14:46:19.291Z,32.71
2023-04-27T14:48:12.122Z,33.18
2023-04-27T14:50:04.236Z,33.37
2023-04-27T14:51:55.852Z,33.07
2023-04-27T14:53:47.030Z,33.23
2023-04-27T14:55:38.430Z,33.68
2023-04-27T14:57:29.741Z,34.70
2023-04-27T14:59:22.290Z,33.93
2023-04-27T15:01:13.942Z,33.33
2023-04-27T15:03:05.265Z,31.96
2023-04-27T15:04:56.660Z,33.49
2023-04-27T15:10:31.276Z,33.51
2023-04-27T15:12:22.718Z,33.69
2023-04-27T15:14:14.316Z,34.78
2023-04-27T15:16:07.352Z,33.59
2023-04-27T15:17:58.995Z,34.54
2023-04-27T15:19:51.624Z,34.35
2023-04-27T15:21:43.187Z,34.57
2023-04-27T15:23:37.119Z,34.11
2023-04-27T15:25:28.258Z,34.77
2023-04-27T15:27:19.558Z,33.78
2023-04-27T15:29:11.234Z,33.98
2023-04-27T15:31:03.377Z,33.64
2023-04-27T15:32:55.009Z,33.57
2023-04-27T15:34:46.949Z,34.12
2023-04-27T15:36:38.046Z,34.50
2023-04-27T15:38:29.203Z,33.96
2023-04-27T15:40:21.069Z,33.26
2023-04-27T15:42:12.183Z,33.79
2023-04-27T15:44:05.102Z,33.04
2023-04-27T15:45:56.774Z,34.19
2023-04-27T15:47:47.998Z,34.52
2023-04-27T15:49:53.522Z,33.93
2023-04-27T15:51:48.106Z,34.21
2023-04-27T15:53:39.676Z,35.17
2023-04-27T15:55:31.030Z,34.52
2023-04-27T15:57:22.517Z,35.89
2023-04-27T15:59:14.461Z,35.73
2023-04-27T16:01:06.171Z,35.28
2023-04-27T16:02:57.827Z,34.86
2023-04-27T16:04:49.682Z,35.52
2023-04-27T16:06:41.337Z,35.36
2023-04-27T16:08:32.901Z,36.16
2023-04-27T16:10:24.724Z,35.37
2023-04-27T16:12:17.055Z,34.94
2023-04-27T16:14:08.844Z,34.57
2023-04-27T16:16:00.377Z,35.39
2023-04-27T16:17:51.770Z,36.27
2023-04-27T16:19:43.822Z,36.39
2023-04-27T16:21:35.449Z,37.19
2023-04-27T16:23:27.123Z,36.09
2023-04-27T16:25:18.841Z,36.97
2023-04-27T16:27:10.456Z,37.67
2023-04-27T16:29:01.777Z,37.81
2023-04-27T16:30:52.913Z,38.86
2023-04-27T16:32:44.024Z,37.71
2023-04-27T16:34:37.236Z,37.48
2023-04-27T16:36:28.777Z,36.65
2023-04-27T16:38:20.140Z,36.62
2023-04-27T16:40:12.119Z,36.72
2023-04-27T16:42:04.472Z,36.72
2023-04-27T16:43:55.468Z,36.10
2023-04-27T16:45:47.110Z,36.73
2023-04-27T16:47:40.088Z,36.79
2023-04-27T16:49:32.932Z,37.72
2023-04-27T16:51:24.799Z,37.97
2023-04-27T16:53:20.337Z,37.61
2023-04-27T16:55:12.085Z,38.64
2023-04-27T16:57:04.320Z,38.19
2023-04-27T16:58:55.954Z,36.88
2023-04-27T17:00:47.529Z,37.67
2023-04-27T17:02:40.415Z,37.55
2023-04-27T17:04:39.319Z,36.96
2023-04-27T17:06:31.029Z,37.48
2023-04-27T17:08:22.248Z,37.74
2023-04-27T17:10:14.018Z,37.08
2023-04-27T17:12:11.000Z,37.77
2023-04-27T17:14:02.413Z,37.54
2023-04-27T17:15:53.834Z,38.02
2023-04-27T17:17:45.586Z,37.52
2023-04-27T17:19:37.131Z,37.55
2023-04-27T17:21:28.805Z,38.18
2023-04-27T17:23:20.080Z,38.13
2023-04-27T17:25:11.599Z,38.96
2023-04-27T17:27:04.249Z,38.72
2023-04-27T17:28:59.869Z,38.68
2023-04-27T17:30:51.350Z,38.92
2023-04-27T17:32:42.684Z,38.97
2023-04-27T17:34:34.292Z,39.51
2023-04-27T17:36:26.479Z,39.20
2023-04-27T17:38:17.834Z,39.21
2023-04-27T17:40:10.074Z,40.00
2023-04-27T17:42:01.833Z,39.78
2023-04-27T17:43:53.405Z,39.60
2023-04-27T17:45:45.152Z,39.67
2023-04-27T17:47:36.573Z,39.95
2023-04-27T17:49:28.127Z,40.06
2023-04-27T17:51:19.778Z,40.10
2023-04-27T17:53:11.107Z,40.55
2023-04-27T17:55:02.925Z,40.71
2023-04-27T17:56:54.407Z,40.98
2023-04-27T17:58:45.769Z,40.93
2023-04-27T18:00:37.476Z,41.56
2023-04-27T18:02:28.734Z,41.79
2023-04-27T18:04:20.533Z,41.61
2023-04-27T18:06:12.167Z,41.68
2023-04-27T18:08:03.637Z,42.91
2023-04-27T18:09:57.578Z,42.78
2023-04-27T18:11:49.034Z,42.78
2023-04-27T18:13:41.036Z,42.35
2023-04-27T18:15:32.386Z,42.35
2023-04-27T18:17:24.662Z,42.62
2023-04-27T18:19:16.396Z,42.89
2023-04-27T18:21:08.049Z,43.44
2023-04-27T18:22:59.664Z,43.75
2023-04-27T18:24:51.479Z,44.14
2023-04-27T18:26:42.575Z,43.95
2023-04-27T18:28:33.733Z,44.29
2023-04-27T18:30:24.924Z,44.11
2023-04-27T18:32:16.656Z,44.17
2023-04-27T18:34:08.320Z,44.03
2023-04-27T18:36:00.064Z,44.98
2023-04-27T18:37:51.619Z,45.83
2023-04-27T18:39:43.592Z,45.43
2023-04-27T18:41:35.173Z,45.74
2023-04-27T18:43:26.496Z,46.55
2023-04-27T18:45:17.969Z,46.90
2023-04-27T18:47:09.795Z,46.97
2023-04-27T18:49:01.815Z,46.89
2023-04-27T18:50:52.918Z,46.76
2023-04-27T18:52:43.993Z,46.48
2023-04-27T18:54:35.666Z,46.71
2023-04-27T18:56:26.895Z,47.07
2023-04-27T18:58:18.123Z,47.05
2023-04-27T19:00:12.441Z,47.15
2023-04-27T19:02:03.923Z,46.99
2023-04-27T19:03:56.712Z,46.85
2023-04-27T19:05:48.241Z,47.01
2023-04-27T19:07:39.548Z,47.25
2023-04-27T19:09:31.081Z,47.65
2023-04-27T19:11:24.941Z,47.32
2023-04-27T19:13:16.370Z,47.44
2023-04-27T19:15:07.877Z,47.48
2023-04-27T19:16:59.422Z,47.46
2023-04-27T19:18:50.951Z,47.72
2023-04-27T19:20:42.319Z,47.98
2023-04-27T19:22:36.706Z,48.11
2023-04-27T19:25:45.189Z,48.24
2023-04-27T19:27:36.936Z,48.42
2023-04-27T19:29:28.836Z,48.55
2023-04-27T19:31:20.128Z,48.73
2023-04-27T19:33:11.549Z,48.88
2023-04-27T19:35:03.209Z,49.06
2023-04-27T19:36:54.807Z,49.15
2023-04-27T19:38:46.523Z,49.84
2023-04-27T19:40:38.290Z,49.88
2023-04-27T19:42:30.245Z,50.55
2023-04-27T19:44:21.524Z,50.92
2023-04-27T19:46:13.355Z,50.98
2023-04-27T19:48:05.521Z,51.34
2023-04-27T19:49:59.098Z,51.73
2023-04-27T19:51:51.154Z,51.74
2023-04-27T19:53:42.560Z,51.94
2023-04-27T19:55:34.291Z,52.28
2023-04-27T19:57:26.071Z,52.38
2023-04-27T19:59:17.627Z,52.42
2023-04-27T20:01:09.926Z,52.49
2023-04-27T20:03:02.668Z,52.54
2023-04-27T20:04:54.809Z,52.74
2023-04-27T20:06:47.296Z,53.09
2023-04-27T20:08:38.921Z,54.13
2023-04-27T20:10:30.528Z,54.88
2023-04-27T20:12:40.737Z,55.73
2023-04-27T20:14:35.581Z,55.78
2023-04-27T20:16:26.874Z,55.67
2023-04-27T20:18:19.368Z,55.57
2023-04-27T20:20:11.613Z,55.45
2023-04-27T20:22:03.224Z,55.96
2023-04-27T20:23:54.785Z,56.31
2023-04-27T20:25:46.500Z,56.57
2023-04-27T20:27:37.694Z,56.56
2023-04-27T20:29:29.352Z,56.73
2023-04-27T20:31:20.655Z,56.80
2023-04-27T20:33:15.494Z,57.05
2023-04-27T20:35:11.361Z,57.63
2023-04-27T20:37:04.415Z,57.66
2023-04-27T20:38:57.639Z,57.77
2023-04-27T20:40:50.339Z,57.96
2023-04-27T20:42:42.569Z,57.94
2023-04-27T20:44:34.154Z,58.09
2023-04-27T20:46:25.488Z,57.83
2023-04-27T20:48:17.077Z,58.28
2023-04-27T20:50:09.213Z,59.22
2023-04-27T20:52:00.912Z,59.69
2023-04-27T20:53:52.370Z,59.32
2023-04-27T20:55:43.877Z,59.45
2023-04-27T20:57:35.280Z,59.45
2023-04-27T20:59:26.840Z,59.56
2023-04-27T21:01:18.427Z,59.35
2023-04-27T21:03:11.233Z,59.53
2023-04-27T21:05:02.940Z,59.74
2023-04-27T21:06:54.582Z,59.76
2023-04-27T21:08:46.453Z,59.97
2023-04-27T21:10:37.697Z,60.15
2023-04-27T21:12:28.955Z,59.99
2023-04-27T21:14:20.984Z,60.20
2023-04-27T21:16:12.845Z,60.95
2023-04-27T21:18:07.869Z,61.47
2023-04-27T21:20:01.072Z,61.99
2023-04-27T21:21:52.763Z,62.30
2023-04-27T21:23:44.222Z,61.86
2023-04-27T21:25:36.072Z,61.82
2023-04-27T21:27:28.707Z,62.36
2023-04-27T21:29:20.321Z,63.47
2023-04-27T21:31:11.518Z,64.49
2023-04-27T21:33:03.282Z,64.11
2023-04-27T21:34:54.477Z,64.00
2023-04-27T21:36:45.904Z,63.86
2023-04-27T21:38:37.064Z,63.79
2023-04-27T21:40:28.507Z,63.83
2023-04-27T21:42:20.210Z,63.59
2023-04-27T21:44:11.822Z,63.88
2023-04-27T21:46:02.802Z,64.09
2023-04-27T21:47:54.304Z,64.34
2023-04-27T21:49:45.914Z,64.62
2023-04-27T21:51:38.249Z,64.66
2023-04-27T21:53:30.674Z,64.90
2023-04-27T21:55:22.085Z,64.87
2023-04-27T21:57:13.311Z,64.94
2023-04-27T21:59:04.507Z,64.84
2023-04-27T22:00:56.039Z,64.97
2023-04-27T22:02:48.498Z,64.93
2023-04-27T22:04:40.512Z,64.72
2023-04-27T22:06:33.539Z,65.23
2023-04-27T22:08:24.937Z,65.85
2023-04-27T22:10:16.304Z,65.82
2023-04-27T22:12:07.489Z,65.78
2023-04-27T22:13:58.581Z,65.78
2023-04-27T22:15:51.217Z,65.66
2023-04-27T22:17:44.018Z,65.52
2023-04-27T22:19:35.378Z,65.80
2023-04-27T22:21:28.976Z,66.79
2023-04-27T22:23:20.849Z,67.25
2023-04-27T22:25:12.649Z,67.22
2023-04-27T22:27:04.133Z,66.75
2023-04-27T22:28:55.965Z,66.35
2023-04-27T22:30:47.692Z,66.50
2023-04-27T22:32:39.415Z,66.65
2023-04-27T22:34:31.443Z,66.56
2023-04-27T22:36:23.123Z,66.38
2023-04-27T22:38:14.440Z,66.35
2023-04-27T22:40:06.688Z,66.46
2023-04-27T22:41:58.090Z,66.79
2023-04-27T22:43:49.289Z,66.74
2023-04-27T22:45:40.768Z,67.03
2023-04-27T22:47:33.031Z,67.00
2023-04-27T22:49:24.604Z,67.76
2023-04-27T22:51:16.946Z,67.91
2023-04-27T22:54:50.750Z,68.39
2023-04-27T22:56:41.817Z,68.49
2023-04-27T22:58:33.461Z,68.41
2023-04-27T23:00:24.813Z,68.57
2023-04-27T23:02:16.563Z,68.22
2023-04-27T23:04:09.256Z,68.18
2023-04-27T23:06:01.082Z,68.22
2023-04-27T23:09:32.399Z,68.15
2023-04-27T23:11:23.150Z,68.64
2023-04-27T23:13:20.768Z,68.84
2023-04-27T23:15:11.100Z,69.32
2023-04-27T23:17:01.313Z,69.42
2023-04-27T23:18:52.084Z,69.27
2023-04-27T23:20:42.645Z,69.05
2023-04-27T23:22:34.414Z,68.92
2023-04-27T23:24:24.470Z,69.02
2023-04-27T23:26:15.818Z,69.25
2023-04-27T23:28:05.952Z,69.12
2023-04-27T23:29:56.212Z,69.18
2023-04-27T23:31:48.665Z,68.85
2023-04-27T23:33:39.026Z,68.73
2023-04-27T23:35:30.930Z,69.27
2023-04-27T23:37:21.971Z,68.73
2023-04-27T23:39:12.150Z,68.84
2023-04-27T23:41:02.501Z,69.15
2023-04-27T23:42:52.711Z,69.19
2023-04-27T23:44:43.228Z,69.89
2023-04-27T23:46:33.591Z,69.85
2023-04-27T23:48:24.096Z,70.10
2023-04-27T23:50:15.177Z,70.37
2023-04-27T23:52:05.590Z,70.11
2023-04-27T23:53:56.155Z,70.19
2023-04-27T23:55:46.392Z,70.31
2023-04-27T23:57:36.541Z,70.60
2023-04-27T23:59:26.571Z,70.44
